createdAt,value
2019-05-07T00:01:25.102Z,101100.75
2019-05-07T00:03:54.612Z,101094.28
2019-05-07T00:06:27.302Z,101090.47
2019-05-07T00:08:56.842Z,101084.56
2019-05-07T00:11:26.335Z,101086.11
2019-05-07T00:13:56.129Z,101086.26
2019-05-07T00:16:27.361Z,101083.94
2019-05-07T00:18:59.426Z,101086.28
2019-05-07T00:21:28.860Z,101087.97
2019-05-07T00:23:58.359Z,101091.95
2019-05-07T00:26:27.764Z,101095.94
2019-05-07T00:28:57.554Z,101095.28
2019-05-07T00:31:27.076Z,101093.28
2019-05-07T00:33:56.529Z,101098.97
2019-05-07T00:36:32.604Z,101095.62
2019-05-07T00:39:21.822Z,101093.19
2019-05-07T00:41:57.620Z,101094.37
2019-05-07T00:44:27.242Z,101092.55
2019-05-07T00:46:56.748Z,101085.42
2019-05-07T00:49:27.641Z,101089.73
2019-05-07T00:51:57.124Z,101086.06
2019-05-07T00:54:29.330Z,101097.69
2019-05-07T00:57:03.089Z,101093.36
2019-05-07T00:59:32.718Z,101093.70
2019-05-07T01:02:02.411Z,101093.72
2019-05-07T01:04:33.119Z,101090.72
2019-05-07T01:07:02.909Z,101087.22
2019-05-07T01:09:32.537Z,101092.54
2019-05-07T01:12:03.138Z,101087.41
2019-05-07T01:14:32.800Z,101087.73
2019-05-07T01:17:02.569Z,101083.42
2019-05-07T01:19:32.950Z,101088.56
2019-05-07T01:22:03.226Z,101083.41
2019-05-07T01:24:32.820Z,101082.75
2019-05-07T01:27:02.282Z,101085.57
2019-05-07T01:29:32.841Z,101086.23
2019-05-07T01:32:13.169Z,101082.77
2019-05-07T01:34:52.537Z,101085.73
2019-05-07T01:37:23.101Z,101092.88
2019-05-07T01:39:53.085Z,101096.36
2019-05-07T01:42:24.773Z,101090.55
2019-05-07T01:44:54.262Z,101090.39
2019-05-07T01:47:23.882Z,101089.39
2019-05-07T01:49:55.055Z,101093.70
2019-05-07T01:52:25.623Z,101091.06
2019-05-07T01:54:55.154Z,101090.23
2019-05-07T01:57:24.547Z,101089.39
2019-05-07T01:59:53.913Z,101097.35
2019-05-07T02:02:33.223Z,101094.54
2019-05-07T02:05:12.275Z,101088.07
2019-05-07T02:07:47.571Z,101092.37
2019-05-07T02:10:34.436Z,101093.23
2019-05-07T02:13:03.784Z,101090.39
2019-05-07T02:15:33.347Z,101087.24
2019-05-07T02:18:02.769Z,101084.23
2019-05-07T02:20:32.413Z,101083.07
2019-05-07T02:23:02.789Z,101081.10
2019-05-07T02:25:32.934Z,101088.39
2019-05-07T02:28:02.462Z,101086.41
2019-05-07T02:30:35.116Z,101091.70
2019-05-07T02:33:03.933Z,101083.39
2019-05-07T02:35:35.272Z,101087.08
2019-05-07T02:38:13.844Z,101090.22
2019-05-07T02:40:53.734Z,101087.41
2019-05-07T02:43:23.107Z,101089.06
2019-05-07T02:46:17.349Z,101085.41
2019-05-07T02:48:43.102Z,101087.08
2019-05-07T02:51:24.022Z,101085.42
2019-05-07T02:54:03.599Z,101086.75
2019-05-07T02:56:33.700Z,101086.91
2019-05-07T02:59:04.198Z,101092.06
2019-05-07T03:01:34.000Z,101089.08
2019-05-07T03:04:03.836Z,101088.39
2019-05-07T03:06:34.134Z,101086.41
2019-05-07T03:09:04.283Z,101085.09
2019-05-07T03:11:34.190Z,101081.08
2019-05-07T03:14:03.937Z,101090.39
2019-05-07T03:16:43.204Z,101082.56
2019-05-07T03:19:04.736Z,101085.08
2019-05-07T03:21:54.012Z,101081.75
2019-05-07T03:24:43.518Z,101087.55
2019-05-07T03:27:14.515Z,101085.08
2019-05-07T03:29:47.907Z,101080.42
2019-05-07T03:32:38.051Z,101075.47
2019-05-07T03:35:16.309Z,101082.09
2019-05-07T03:37:44.481Z,101075.30
2019-05-07T03:40:14.495Z,101077.45
2019-05-07T03:42:44.396Z,101073.47
2019-05-07T03:45:23.985Z,101074.47
2019-05-07T03:48:04.135Z,101076.11
2019-05-07T03:50:33.907Z,101076.80
2019-05-07T03:53:03.427Z,101074.80
2019-05-07T03:55:33.367Z,101073.14
2019-05-07T03:58:03.348Z,101074.63
2019-05-07T04:00:33.428Z,101078.78
2019-05-07T04:03:03.668Z,101083.90
2019-05-07T04:05:34.254Z,101085.22
2019-05-07T04:08:04.006Z,101091.54
2019-05-07T04:10:33.986Z,101086.08
2019-05-07T04:13:04.618Z,101087.39
2019-05-07T04:15:34.333Z,101091.72
2019-05-07T04:18:03.927Z,101088.70
2019-05-07T04:20:33.679Z,101087.03
2019-05-07T04:23:04.320Z,101089.03
2019-05-07T04:25:53.030Z,101091.83
2019-05-07T04:28:43.599Z,101092.64
2019-05-07T04:31:14.069Z,101093.64
2019-05-07T04:33:44.208Z,101091.14
2019-05-07T04:36:35.139Z,101091.45
2019-05-07T04:39:06.105Z,101090.62
2019-05-07T04:41:35.573Z,101088.44
2019-05-07T04:44:05.282Z,101090.61
2019-05-07T04:46:34.671Z,101088.94
2019-05-07T04:49:04.276Z,101095.75
2019-05-07T04:51:48.527Z,101085.77
2019-05-07T04:54:18.041Z,101081.25
2019-05-07T04:56:47.579Z,101078.19
2019-05-07T04:59:17.000Z,101076.24
2019-05-07T05:01:53.281Z,101080.88
2019-05-07T05:04:30.240Z,101082.83
2019-05-07T05:06:54.008Z,101077.97
2019-05-07T05:09:23.567Z,101075.58
2019-05-07T05:11:53.206Z,101077.21
2019-05-07T05:14:23.047Z,101086.98
2019-05-07T05:16:52.679Z,101081.66
2019-05-07T05:19:22.968Z,101081.16
2019-05-07T05:22:12.674Z,101073.91
2019-05-07T05:24:45.151Z,101075.85
2019-05-07T05:27:14.652Z,101081.08
2019-05-07T05:29:44.075Z,101083.09
2019-05-07T05:32:13.457Z,101089.37
2019-05-07T05:34:42.863Z,101080.91
2019-05-07T05:37:12.383Z,101087.69
2019-05-07T05:39:42.610Z,101086.85
2019-05-07T05:42:33.041Z,101086.20
2019-05-07T05:45:02.838Z,101079.05
2019-05-07T05:47:33.016Z,101084.44
2019-05-07T05:50:03.253Z,101087.98
2019-05-07T05:52:46.541Z,101085.23
2019-05-07T05:55:18.347Z,101084.30
2019-05-07T05:58:09.657Z,101083.69
2019-05-07T06:01:02.557Z,101080.35
2019-05-07T06:03:53.992Z,101080.41
2019-05-07T06:06:34.383Z,101078.83
2019-05-07T06:09:12.492Z,101079.73
2019-05-07T06:12:06.797Z,101080.17
2019-05-07T06:14:45.997Z,101077.11
2019-05-07T06:17:42.535Z,101083.87
2019-05-07T06:20:24.754Z,101081.45
2019-05-07T06:23:17.027Z,101079.98
2019-05-07T06:25:47.104Z,101084.81
2019-05-07T06:28:17.046Z,101073.36
2019-05-07T06:30:46.536Z,101075.87
2019-05-07T06:33:15.956Z,101074.26
2019-05-07T06:35:45.432Z,101074.30
2019-05-07T06:38:15.480Z,101078.53
2019-05-07T06:41:13.105Z,101075.67
2019-05-07T06:43:47.141Z,101077.98
2019-05-07T06:46:16.737Z,101081.78
2019-05-07T06:48:46.488Z,101082.63
2019-05-07T06:51:17.552Z,101089.75
2019-05-07T06:53:47.180Z,101088.50
2019-05-07T06:56:16.600Z,101084.69
2019-05-07T06:58:52.619Z,101083.53
2019-05-07T07:01:44.344Z,101086.02
2019-05-07T07:04:34.401Z,101089.93
2019-05-07T07:07:30.738Z,101087.89
2019-05-07T07:10:02.648Z,101086.84
2019-05-07T07:12:33.235Z,101083.53
2019-05-07T07:15:02.922Z,101086.13
2019-05-07T07:17:32.785Z,101082.88
2019-05-07T07:20:02.458Z,101084.77
2019-05-07T07:22:32.137Z,101080.92
2019-05-07T07:25:02.924Z,101086.88
2019-05-07T07:27:32.715Z,101080.41
2019-05-07T07:30:21.815Z,101077.32
2019-05-07T07:32:52.017Z,101079.20
2019-05-07T07:35:22.584Z,101075.72
2019-05-07T07:37:53.083Z,101074.84
2019-05-07T07:40:45.258Z,101076.00
2019-05-07T07:43:14.603Z,101074.75
2019-05-07T07:45:44.039Z,101066.53
2019-05-07T07:48:13.402Z,101075.03
2019-05-07T07:50:42.820Z,101075.86
2019-05-07T07:53:12.929Z,101069.88
2019-05-07T07:56:02.574Z,101070.74
2019-05-07T07:58:41.966Z,101072.98
2019-05-07T08:01:19.546Z,101074.91
2019-05-07T08:03:49.078Z,101066.45
2019-05-07T08:06:18.571Z,101066.59
2019-05-07T08:08:48.113Z,101067.56
2019-05-07T08:11:17.672Z,101064.59
2019-05-07T08:13:47.163Z,101072.44
2019-05-07T08:16:19.317Z,101070.35
2019-05-07T08:18:49.190Z,101067.53
2019-05-07T08:21:18.754Z,101060.20
2019-05-07T08:23:48.132Z,101060.20
2019-05-07T08:26:17.619Z,101062.12
2019-05-07T08:28:47.122Z,101056.38
2019-05-07T08:31:35.833Z,101055.72
2019-05-07T08:34:31.988Z,101057.13
2019-05-07T08:37:01.962Z,101058.39
2019-05-07T08:39:32.595Z,101050.25
2019-05-07T08:42:02.232Z,101046.09
2019-05-07T08:44:42.956Z,101052.69
2019-05-07T08:47:43.796Z,101054.66
2019-05-07T08:50:13.308Z,101045.12
2019-05-07T08:52:42.789Z,101050.02
2019-05-07T08:55:13.493Z,101055.41
2019-05-07T08:57:45.775Z,101047.32
2019-05-07T09:00:15.823Z,101050.23
2019-05-07T09:02:45.284Z,101037.88
2019-05-07T09:05:14.978Z,101040.67
2019-05-07T09:07:44.616Z,101042.04
2019-05-07T09:10:14.379Z,101036.31
2019-05-07T09:12:45.868Z,101040.75
2019-05-07T09:15:15.308Z,101028.48
2019-05-07T09:17:44.789Z,101029.55
2019-05-07T09:20:14.271Z,101021.87
2019-05-07T09:22:43.900Z,101023.98
2019-05-07T09:25:13.747Z,101018.11
2019-05-07T09:27:48.164Z,101020.42
2019-05-07T09:30:42.531Z,101021.44
2019-05-07T09:33:42.162Z,101019.32
2019-05-07T09:36:19.752Z,101024.80
2019-05-07T09:38:56.837Z,101023.20
2019-05-07T09:41:29.654Z,101023.63
2019-05-07T09:43:59.575Z,101015.45
2019-05-07T09:46:29.056Z,101016.65
2019-05-07T09:48:58.566Z,101014.55
2019-05-07T09:51:27.957Z,101005.10
2019-05-07T09:53:57.444Z,101001.69
2019-05-07T09:56:26.958Z,100998.84
2019-05-07T09:58:56.486Z,101000.23
2019-05-07T10:01:25.994Z,101001.20
2019-05-07T10:03:55.448Z,101003.17
2019-05-07T10:06:24.973Z,100997.92
2019-05-07T10:08:54.992Z,100992.32
2019-05-07T10:11:34.495Z,100995.08
2019-05-07T10:14:07.996Z,100998.06
2019-05-07T10:16:52.291Z,100992.40
2019-05-07T10:19:22.240Z,100988.20
2019-05-07T10:21:52.947Z,100983.82
2019-05-07T10:24:22.657Z,100986.13
2019-05-07T10:26:53.204Z,100983.61
2019-05-07T10:29:22.911Z,100983.70
2019-05-07T10:31:52.845Z,100984.09
2019-05-07T10:34:23.035Z,100974.93
2019-05-07T10:36:52.483Z,100979.19
2019-05-07T10:39:22.101Z,100973.10
2019-05-07T10:41:51.475Z,100970.13
2019-05-07T10:44:23.474Z,100970.31
2019-05-07T10:47:12.102Z,100965.83
2019-05-07T10:49:46.045Z,100962.45
2019-05-07T10:52:15.550Z,100957.61
2019-05-07T10:54:56.785Z,100958.56
2019-05-07T10:57:16.257Z,100950.83
2019-05-07T10:59:45.634Z,100956.78
2019-05-07T11:02:23.067Z,100960.50
2019-05-07T11:04:53.247Z,100949.63
2019-05-07T11:07:22.647Z,100951.72
2019-05-07T11:09:52.482Z,100958.75
2019-05-07T11:12:22.943Z,100956.16
2019-05-07T11:14:52.524Z,100951.95
2019-05-07T11:17:39.451Z,100945.31
2019-05-07T11:20:12.041Z,100942.10
2019-05-07T11:22:42.877Z,100943.88
2019-05-07T11:25:12.535Z,100937.92
2019-05-07T11:27:42.227Z,100931.53
2019-05-07T11:30:12.439Z,100929.14
2019-05-07T11:32:42.927Z,100929.62
2019-05-07T11:35:14.722Z,100931.23
2019-05-07T11:37:44.382Z,100918.38
2019-05-07T11:40:14.450Z,100923.98
2019-05-07T11:43:06.034Z,100913.08
2019-05-07T11:45:54.012Z,100910.66
2019-05-07T11:48:22.870Z,100909.62
2019-05-07T11:51:26.814Z,100911.06
2019-05-07T11:54:12.378Z,100907.06
2019-05-07T11:56:42.366Z,100903.80
2019-05-07T11:59:13.373Z,100902.15
2019-05-07T12:01:47.902Z,100894.09
2019-05-07T12:04:17.761Z,100896.27
2019-05-07T12:06:47.110Z,100892.88
2019-05-07T12:09:16.529Z,100890.28
2019-05-07T12:11:45.938Z,100884.94
2019-05-07T12:14:27.982Z,100885.16
2019-05-07T12:16:46.690Z,100882.36
2019-05-07T12:19:16.606Z,100879.41
2019-05-07T12:21:46.462Z,100880.82
2019-05-07T12:24:16.478Z,100870.44
2019-05-07T12:26:46.466Z,100873.66
2019-05-07T12:29:15.894Z,100869.77
2019-05-07T12:32:16.271Z,100865.52
2019-05-07T12:34:48.919Z,100867.17
2019-05-07T12:37:18.310Z,100859.75
2019-05-07T12:39:47.813Z,100857.94
2019-05-07T12:42:17.255Z,100851.09
2019-05-07T12:44:46.713Z,100852.52
2019-05-07T12:47:16.211Z,100852.05
2019-05-07T12:49:45.654Z,100849.58
2019-05-07T12:52:23.375Z,100851.77
2019-05-07T12:55:11.920Z,100850.44
2019-05-07T12:57:42.063Z,100842.22
2019-05-07T13:00:29.577Z,100845.14
2019-05-07T13:03:26.999Z,100838.95
2019-05-07T13:05:56.497Z,100835.44
2019-05-07T13:08:26.011Z,100844.73
2019-05-07T13:10:55.418Z,100838.02
2019-05-07T13:13:28.069Z,100834.34
2019-05-07T13:15:57.598Z,100836.95
2019-05-07T13:18:26.982Z,100842.20
2019-05-07T13:20:56.417Z,100839.38
2019-05-07T13:23:25.854Z,100846.38
2019-05-07T13:25:55.271Z,100852.89
2019-05-07T13:28:24.767Z,100839.18
2019-05-07T13:30:54.221Z,100839.49
2019-05-07T13:33:23.956Z,100836.83
2019-05-07T13:35:53.491Z,100829.39
2019-05-07T13:38:48.188Z,100823.14
2019-05-07T13:41:39.679Z,100823.91
2019-05-07T13:44:34.188Z,100818.97
2019-05-07T13:47:21.930Z,100810.31
2019-05-07T13:49:53.879Z,100807.45
2019-05-07T13:52:24.502Z,100811.19
2019-05-07T13:54:54.381Z,100804.33
2019-05-07T13:57:24.226Z,100799.97
2019-05-07T13:59:54.534Z,100800.33
2019-05-07T14:02:26.191Z,100803.41
2019-05-07T14:04:55.697Z,100801.65
2019-05-07T14:07:26.557Z,100788.81
2019-05-07T14:09:55.972Z,100789.44
2019-05-07T14:12:25.557Z,100788.30
2019-05-07T14:14:55.128Z,100789.45
2019-05-07T14:17:24.643Z,100790.77
2019-05-07T14:19:54.108Z,100786.09
2019-05-07T14:22:23.887Z,100782.71
2019-05-07T14:24:53.321Z,100786.62
2019-05-07T14:27:22.800Z,100775.25
2019-05-07T14:29:52.339Z,100777.50
2019-05-07T14:32:31.040Z,100780.37
2019-05-07T14:35:20.061Z,100772.88
2019-05-07T14:37:53.322Z,100767.00
2019-05-07T14:40:25.216Z,100762.19
2019-05-07T14:43:03.386Z,100775.16
2019-05-07T14:45:32.790Z,100769.34
2019-05-07T14:48:03.003Z,100778.48
2019-05-07T14:50:33.023Z,100771.34
2019-05-07T14:53:02.905Z,100765.14
2019-05-07T14:55:32.611Z,100765.73
2019-05-07T14:58:02.057Z,100763.81
2019-05-07T15:00:31.431Z,100768.91
2019-05-07T15:03:01.937Z,100772.61
2019-05-07T15:05:31.496Z,100765.98
2019-05-07T15:08:10.770Z,100764.23
2019-05-07T15:10:32.871Z,100767.44
2019-05-07T15:13:02.475Z,100766.77
2019-05-07T15:15:32.221Z,100762.34
2019-05-07T15:18:15.725Z,100757.44
2019-05-07T15:20:47.552Z,100746.11
2019-05-07T15:23:22.563Z,100740.12
2019-05-07T15:25:52.441Z,100744.33
2019-05-07T15:28:22.857Z,100738.30
2019-05-07T15:31:02.938Z,100732.54
2019-05-07T15:33:32.584Z,100727.39
2019-05-07T15:36:02.996Z,100732.09
2019-05-07T15:38:32.801Z,100731.26
2019-05-07T15:41:02.348Z,100728.66
2019-05-07T15:43:37.641Z,100725.70
2019-05-07T15:46:07.019Z,100727.89
2019-05-07T15:48:36.589Z,100721.09
2019-05-07T15:51:06.440Z,100721.44
2019-05-07T15:53:42.701Z,100715.82
2019-05-07T15:56:12.530Z,100716.09
2019-05-07T15:58:42.689Z,100709.02
2019-05-07T16:01:12.823Z,100704.35
2019-05-07T16:03:44.359Z,100705.36
2019-05-07T16:06:13.750Z,100697.27
2019-05-07T16:08:50.487Z,100689.22
2019-05-07T16:11:23.181Z,100691.09
2019-05-07T16:14:12.422Z,100690.42
2019-05-07T16:16:45.319Z,100683.66
2019-05-07T16:19:34.255Z,100687.42
2019-05-07T16:22:08.130Z,100684.16
2019-05-07T16:24:37.690Z,100688.30
2019-05-07T16:27:07.087Z,100686.52
2019-05-07T16:29:36.586Z,100674.08
2019-05-07T16:32:07.221Z,100674.95
2019-05-07T16:34:36.695Z,100671.99
2019-05-07T16:37:07.583Z,100662.70
2019-05-07T16:39:37.342Z,100662.47
2019-05-07T16:42:08.382Z,100660.75
2019-05-07T16:44:38.046Z,100651.64
2019-05-07T16:47:07.526Z,100646.48
2019-05-07T16:49:37.015Z,100651.81
2019-05-07T16:52:06.376Z,100644.92
2019-05-07T16:54:35.950Z,100643.53
2019-05-07T16:57:33.723Z,100642.10
2019-05-07T17:00:04.663Z,100639.58
2019-05-07T17:02:38.646Z,100641.05
2019-05-07T17:05:12.439Z,100639.09
2019-05-07T17:07:49.078Z,100633.11
2019-05-07T17:10:19.292Z,100635.20
2019-05-07T17:12:48.660Z,100633.45
2019-05-07T17:15:18.242Z,100637.28
2019-05-07T17:17:52.116Z,100630.50
2019-05-07T17:20:22.039Z,100634.92
2019-05-07T17:22:52.760Z,100634.08
2019-05-07T17:25:37.582Z,100626.63
2019-05-07T17:28:07.116Z,100629.11
2019-05-07T17:30:37.711Z,100632.28
2019-05-07T17:33:07.898Z,100629.78
2019-05-07T17:35:37.475Z,100624.16
2019-05-07T17:38:09.779Z,100620.26
2019-05-07T17:40:38.310Z,100624.19
2019-05-07T17:43:15.109Z,100625.27
2019-05-07T17:45:45.604Z,100626.92
2019-05-07T17:48:14.989Z,100624.39
2019-05-07T17:51:06.314Z,100628.11
2019-05-07T17:53:35.747Z,100622.55
2019-05-07T17:56:05.181Z,100623.89
2019-05-07T17:58:34.569Z,100621.46
2019-05-07T18:01:04.831Z,100622.97
2019-05-07T18:03:35.786Z,100626.98
2019-05-07T18:06:05.970Z,100616.42
2019-05-07T18:08:35.421Z,100618.80
2019-05-07T18:11:17.385Z,100617.23
2019-05-07T18:13:36.051Z,100610.37
2019-05-07T18:16:33.910Z,100615.16
2019-05-07T18:19:03.387Z,100619.80
2019-05-07T18:21:32.962Z,100607.58
2019-05-07T18:24:13.320Z,100612.12
2019-05-07T18:26:33.976Z,100607.03
2019-05-07T18:29:03.387Z,100609.98
2019-05-07T18:31:51.798Z,100607.95
2019-05-07T18:34:21.329Z,100605.48
2019-05-07T18:36:52.909Z,100606.34
2019-05-07T18:39:22.028Z,100601.62
2019-05-07T18:41:52.310Z,100607.53
2019-05-07T18:44:22.478Z,100599.70
2019-05-07T18:46:52.857Z,100597.52
2019-05-07T18:49:22.795Z,100601.27
2019-05-07T18:51:52.335Z,100599.87
2019-05-07T18:54:31.245Z,100611.21
2019-05-07T18:57:02.166Z,100608.37
2019-05-07T18:59:33.422Z,100609.55
2019-05-07T19:02:03.869Z,100608.12
2019-05-07T19:04:35.802Z,100607.70
2019-05-07T19:07:05.643Z,100608.84
2019-05-07T19:09:35.711Z,100604.34
2019-05-07T19:12:06.932Z,100598.56
2019-05-07T19:14:37.163Z,100603.91
2019-05-07T19:17:07.165Z,100603.63
2019-05-07T19:19:37.481Z,100606.76
2019-05-07T19:22:07.340Z,100607.52
2019-05-07T19:24:45.170Z,100603.24
2019-05-07T19:27:12.477Z,100606.27
2019-05-07T19:29:45.684Z,100604.36
2019-05-07T19:32:17.614Z,100607.12
2019-05-07T19:34:47.518Z,100602.55
2019-05-07T19:37:17.527Z,100605.25
2019-05-07T19:39:49.467Z,100607.61
2019-05-07T19:42:20.843Z,100609.28
2019-05-07T19:44:52.038Z,100611.29
2019-05-07T19:47:23.239Z,100604.84
2019-05-07T19:49:55.640Z,100603.18
2019-05-07T19:52:26.044Z,100601.12
2019-05-07T19:55:01.701Z,100600.72
2019-05-07T19:57:36.288Z,100600.48
2019-05-07T20:00:07.380Z,100595.51
2019-05-07T20:02:44.279Z,100593.34
2019-05-07T20:05:16.345Z,100596.16
2019-05-07T20:07:46.724Z,100590.70
2019-05-07T20:10:22.190Z,100588.23
2019-05-07T20:13:12.703Z,100586.08
2019-05-07T20:15:46.664Z,100584.30
2019-05-07T20:18:21.990Z,100582.15
2019-05-07T20:20:53.510Z,100579.39
2019-05-07T20:23:32.286Z,100582.44
2019-05-07T20:26:08.963Z,100582.48
2019-05-07T20:28:41.759Z,100580.55
2019-05-07T20:31:12.842Z,100581.92
2019-05-07T20:33:43.621Z,100572.03
2019-05-07T20:36:18.560Z,100568.77
2019-05-07T20:38:49.380Z,100568.50
2019-05-07T20:41:19.505Z,100566.53
2019-05-07T20:43:52.360Z,100569.55
2019-05-07T20:46:22.766Z,100565.94
2019-05-07T20:48:55.198Z,100558.17
2019-05-07T20:51:29.557Z,100555.02
2019-05-07T20:54:14.957Z,100555.88
2019-05-07T20:56:53.840Z,100549.59
2019-05-07T20:59:24.428Z,100546.11
2019-05-07T21:01:54.280Z,100540.48
2019-05-07T21:04:24.844Z,100538.32
2019-05-07T21:06:54.675Z,100528.86
2019-05-07T21:09:24.475Z,100523.55
2019-05-07T21:11:54.246Z,100518.59
2019-05-07T21:14:25.074Z,100522.73
2019-05-07T21:16:54.562Z,100507.31
2019-05-07T21:19:24.199Z,100498.08
2019-05-07T21:21:53.799Z,100497.73
2019-05-07T21:24:23.262Z,100494.75
2019-05-07T21:26:53.177Z,100487.13
2019-05-07T21:29:22.737Z,100490.16
2019-05-07T21:31:52.484Z,100494.49
2019-05-07T21:34:23.006Z,100495.38
2019-05-07T21:36:52.667Z,100493.42
2019-05-07T21:39:22.632Z,100491.97
2019-05-07T21:41:52.123Z,100493.95
2019-05-07T21:44:22.697Z,100489.67
2019-05-07T21:46:52.763Z,100492.98
2019-05-07T21:49:22.880Z,100491.52
2019-05-07T21:51:54.546Z,100489.87
2019-05-07T21:54:32.573Z,100484.76
2019-05-07T21:57:22.152Z,100490.53
2019-05-07T22:00:12.577Z,100488.39
2019-05-07T22:02:41.978Z,100480.78
2019-05-07T22:05:12.229Z,100481.14
2019-05-07T22:07:41.682Z,100475.69
2019-05-07T22:10:12.751Z,100474.52
2019-05-07T22:12:42.316Z,100470.70
2019-05-07T22:15:13.183Z,100466.42
2019-05-07T22:17:44.439Z,100459.95
2019-05-07T22:20:13.701Z,100451.71
2019-05-07T22:22:43.649Z,100455.66
2019-05-07T22:25:13.215Z,100449.70
2019-05-07T22:27:42.917Z,100453.00
2019-05-07T22:30:16.237Z,100446.72
2019-05-07T22:32:52.782Z,100453.34
2019-05-07T22:35:29.509Z,100446.72
2019-05-07T22:37:58.955Z,100444.08
2019-05-07T22:40:28.342Z,100435.00
2019-05-07T22:42:57.759Z,100431.17
2019-05-07T22:45:27.243Z,100428.20
2019-05-07T22:47:56.659Z,100427.37
2019-05-07T22:50:26.135Z,100423.87
2019-05-07T22:52:55.601Z,100418.09
2019-05-07T22:55:25.539Z,100404.34
2019-05-07T22:58:06.169Z,100390.75
2019-05-07T23:00:42.768Z,100390.75
2019-05-07T23:03:13.356Z,100384.12
2019-05-07T23:05:44.897Z,100386.47
2019-05-07T23:08:14.089Z,100390.80
2019-05-07T23:10:44.603Z,100394.14
2019-05-07T23:13:14.234Z,100391.84
2019-05-07T23:15:43.843Z,100382.61
2019-05-07T23:18:13.386Z,100381.61
2019-05-07T23:20:42.880Z,100384.30
2019-05-07T23:23:14.189Z,100382.96
2019-05-07T23:25:43.461Z,100377.52
2019-05-07T23:28:12.950Z,100374.38
2019-05-07T23:30:44.348Z,100364.96
2019-05-07T23:33:13.768Z,100359.36
2019-05-07T23:35:43.288Z,100364.14
2019-05-07T23:38:15.733Z,100366.14
2019-05-07T23:41:02.829Z,100365.65
2019-05-07T23:43:32.932Z,100360.52
2019-05-07T23:46:02.428Z,100353.57
2019-05-07T23:48:32.242Z,100344.34
2019-05-07T23:51:02.276Z,100344.81
2019-05-07T23:53:31.960Z,100346.66
2019-05-07T23:56:02.795Z,100337.22
2019-05-07T23:58:32.766Z,100340.03
